Alyeska Resort
Hourly Weather - Mid Mountian Site
ALY_MID_HR 6/30/2016
CLICK TO VIEW GRAPH!!

        DATE  TIME   Air   H2o   H2o   New  Snow  BATT   Rel
                    Temp  Inch Since  Snow Depth  Volt  Hum%
                      F   1HR  0600   1HR         AVG   AVG

   6/30/2016 16:00    62  0.00  0.00  43.3  1.66 13.07    64
   6/30/2016 15:00    62  0.00  0.00  43.2  0.27 13.08    65
   6/30/2016 14:00    62  0.00  0.00  43.0  0.16 13.10    65
   6/30/2016 13:00    59  0.00  0.00  42.3  0.04 13.14    71
   6/30/2016 12:00    56  0.00  0.00  26.0  0.08 13.17    75
   6/30/2016 11:00    54  0.00  0.00  26.5  0.06 13.21    78
   6/30/2016 10:00    51  0.00  0.00  27.3  1.69 13.23    78
   6/30/2016 09:00    48  0.00  0.00  27.2  0.05 13.23    82
   6/30/2016 08:00    48  0.00  0.00  26.8  0.02 13.22    84
   6/30/2016 07:00    49  0.00  0.00  26.1  0.14 13.22    82
   6/30/2016 06:00    49  0.00  0.00  25.4  3.05 13.21    81
   6/30/2016 05:00    49  0.00  0.00  24.6  2.53 13.20    80
   6/30/2016 04:00    50  0.00  0.00  23.8  0.04 13.19    77
   6/30/2016 03:00    51  0.00  0.00  23.2  0.07 13.18    76
   6/30/2016 02:00    51  0.00  0.00  24.7  0.26 13.17    77
   6/30/2016 01:00    51  0.00  0.00  34.5  1.86 13.16    78
   6/29/2016 24:00    52  0.00  0.00  40.3  2.32 13.14    78
   6/29/2016 23:00    54  0.00  0.00  41.5  1.86 13.12    75
   6/29/2016 22:00    56  0.00  0.00  42.0  5.46 13.10    70
   6/29/2016 21:00    58  0.00  0.00  42.2  2.23 13.09    67
   6/29/2016 20:00    60  0.00  0.00  42.3  1.26 13.09    64
   6/29/2016 19:00    58  0.00  0.00  42.6  2.32 13.08    67
   6/29/2016 18:00    58  0.00  0.00  42.9  1.20 13.07    67
   6/29/2016 17:00    60  0.00  0.00  43.1  0.38 13.06    61


CLICK TO VIEW GRAPH!!